Time;durP1;ratioP1;P1;durP2;ratioP2;P2;SDS_P1;SDS_P2;PMS_P1;PMS_P2;Temp;Humidity;BMP_temperature;BMP_pressure;BME280_temperature;BME280_humidity;BME280_pressure;Samples;Min_cycle;Max_cycle;Signal;HPM_P1;HPM_P2
2021/05/30 00:00:37;;;;;;;0.60;0.60;;;;;;;10.01;80.41;97773.34;1648552;85;21136;-65
2021/05/30 00:03:06;;;;;;;4.12;0.82;;;;;;;9.99;80.61;97772.69;1648738;87;21115;-64
2021/05/30 00:05:33;;;;;;;1.40;0.68;;;;;;;9.91;81.38;97781.66;1649460;85;21036;-64
2021/05/30 00:08:00;;;;;;;5.45;0.45;;;;;;;9.89;81.66;97773.20;1649431;87;21111;-64
2021/05/30 00:10:27;;;;;;;0.95;0.60;;;;;;;9.86;82.46;97770.89;1649577;87;21083;-64
2021/05/30 00:12:54;;;;;;;1.05;0.70;;;;;;;9.86;81.86;97778.67;1649400;87;21194;-64
2021/05/30 00:15:22;;;;;;;1.20;0.70;;;;;;;9.87;80.91;97781.61;1649722;87;21190;-68
2021/05/30 00:17:49;;;;;;;0.42;0.40;;;;;;;9.88;80.50;97778.04;1649464;87;21135;-64
2021/05/30 00:20:16;;;;;;;1.40;0.70;;;;;;;9.88;80.25;97779.84;1649049;85;21103;-64
2021/05/30 00:22:43;;;;;;;1.12;0.70;;;;;;;9.88;80.05;97774.15;1649527;87;21048;-66
2021/05/30 00:25:12;;;;;;;1.27;0.60;;;;;;;9.80;81.44;97768.06;1649476;87;21163;-64
2021/05/30 00:27:39;;;;;;;0.60;0.60;;;;;;;9.75;80.52;97772.38;1649413;85;21123;-65
2021/05/30 00:30:08;;;;;;;1.12;0.72;;;;;;;9.73;80.78;97774.27;1649623;87;21194;-65
2021/05/30 00:32:35;;;;;;;0.93;0.75;;;;;;;9.72;80.31;97770.55;1649435;87;21143;-64
2021/05/30 00:35:03;;;;;;;1.27;0.72;;;;;;;9.70;79.98;97775.86;1649489;87;21640;-65
2021/05/30 00:37:30;;;;;;;3.62;0.90;;;;;;;9.68;80.26;97770.02;1649666;86;21674;-65
2021/05/30 00:39:57;;;;;;;1.05;0.75;;;;;;;9.66;80.55;97764.14;1649475;87;21183;-65
2021/05/30 00:42:24;;;;;;;1.30;1.00;;;;;;;9.62;80.31;97762.78;1649742;86;21134;-65
2021/05/30 00:44:51;;;;;;;1.70;0.80;;;;;;;9.64;80.13;97769.14;1649589;87;21099;-64
2021/05/30 00:47:18;;;;;;;1.35;0.90;;;;;;;9.61;79.90;97770.22;1649701;87;21135;-66
2021/05/30 00:49:45;;;;;;;1.20;0.60;;;;;;;9.60;81.19;97777.68;1649759;87;21075;-65
2021/05/30 00:52:13;;;;;;;1.30;0.60;;;;;;;9.57;80.83;97780.56;1649625;87;21088;-65
2021/05/30 00:54:41;;;;;;;1.30;0.70;;;;;;;9.51;81.54;97778.04;1649688;86;21185;-66
2021/05/30 00:57:10;;;;;;;3.85;0.80;;;;;;;9.46;81.86;97772.92;1649634;86;21104;-65
2021/05/30 00:59:38;;;;;;;1.57;0.82;;;;;;;9.38;82.37;97768.91;1649800;87;21055;-65
2021/05/30 01:02:05;;;;;;;9.25;1.07;;;;;;;9.35;82.26;97766.61;1649801;87;21100;-65
2021/05/30 01:04:34;;;;;;;0.82;0.80;;;;;;;9.29;82.61;97762.00;1649590;87;21365;-66
2021/05/30 01:07:01;;;;;;;1.60;0.70;;;;;;;9.26;81.58;97764.37;1649672;87;21055;-65
2021/05/30 01:09:31;;;;;;;1.17;0.80;;;;;;;9.26;80.93;97766.17;1649616;85;21097;-65
2021/05/30 01:11:59;;;;;;;8.43;1.10;;;;;;;9.23;80.77;97765.95;1649809;87;21757;-67
2021/05/30 01:14:26;;;;;;;1.07;0.75;;;;;;;9.21;80.57;97761.88;1625652;87;21106;-65
2021/05/30 01:16:54;;;;;;;1.02;0.65;;;;;;;9.19;80.45;97763.77;1650165;87;21147;-66
2021/05/30 01:19:23;;;;;;;0.55;0.55;;;;;;;9.15;79.95;97767.59;1649893;86;21674;-66
2021/05/30 01:21:50;;;;;;;3.45;0.95;;;;;;;9.11;79.45;97765.76;1625453;87;21992;-69
2021/05/30 01:24:17;;;;;;;2.70;1.20;;;;;;;9.08;79.66;97764.75;1649727;86;21199;-66
2021/05/30 01:26:44;;;;;;;0.98;0.80;;;;;;;9.03;79.75;97766.45;1649465;85;21171;-65
2021/05/30 01:29:11;;;;;;;2.22;1.10;;;;;;;9.00;79.71;97767.20;1649583;86;21167;-64
2021/05/30 01:31:39;;;;;;;1.82;0.78;;;;;;;8.99;79.76;97766.86;1649561;87;21060;-65
2021/05/30 01:34:05;;;;;;;1.17;0.68;;;;;;;8.99;80.60;97763.79;1649559;87;21096;-64
2021/05/30 01:36:32;;;;;;;2.42;1.00;;;;;;;9.00;79.68;97769.80;1649571;87;21138;-64
2021/05/30 01:38:59;;;;;;;0.72;0.53;;;;;;;9.01;79.16;97773.55;1649700;86;21171;-66
2021/05/30 01:41:27;;;;;;;1.05;0.75;;;;;;;9.05;78.73;97774.09;1649622;86;21068;-64
2021/05/30 01:43:53;;;;;;;0.90;0.53;;;;;;;9.08;78.55;97778.99;1649551;87;21047;-65
2021/05/30 01:46:20;;;;;;;0.90;0.75;;;;;;;9.13;78.23;97769.52;1649577;87;21577;-64
2021/05/30 01:48:47;;;;;;;1.30;0.68;;;;;;;9.17;78.25;97765.22;1649944;85;21156;-70
2021/05/30 01:51:14;;;;;;;1.27;0.82;;;;;;;9.22;78.37;97763.01;1650278;85;21119;-65
2021/05/30 01:53:49;;;;;;;1.07;0.70;;;;;;;9.25;78.22;97760.64;1649845;85;21171;-67
2021/05/30 01:58:43;;;;;;;1.47;1.30;;;;;;;9.34;77.67;97761.08;1649904;85;21711;-65
2021/05/30 02:01:15;;;;;;;1.05;0.80;;;;;;;9.39;77.70;97769.27;1649778;87;21623;-65
2021/05/30 02:03:44;;;;;;;0.68;0.60;;;;;;;9.44;77.49;97773.55;1649656;85;21252;-65
2021/05/30 02:06:16;;;;;;;0.90;0.47;;;;;;;9.48;77.44;97772.32;1649753;87;21115;-65
2021/05/30 02:08:47;;;;;;;1.67;0.80;;;;;;;9.51;78.82;97771.55;1649723;87;21055;-64
2021/05/30 02:11:14;;;;;;;1.00;0.70;;;;;;;9.54;79.22;97779.05;1649607;86;21104;-65
2021/05/30 02:13:41;;;;;;;1.60;1.00;;;;;;;9.59;79.53;97771.33;1649856;87;21004;-65
2021/05/30 02:16:08;;;;;;;2.70;0.88;;;;;;;9.61;79.51;97774.11;1649794;86;21088;-65
2021/05/30 02:18:35;;;;;;;1.35;0.85;;;;;;;9.64;79.36;97771.26;1649640;87;21560;-66
2021/05/30 02:21:03;;;;;;;1.10;0.90;;;;;;;9.65;80.77;97765.09;1649866;87;21337;-66
2021/05/30 02:23:31;;;;;;;0.80;0.80;;;;;;;9.64;80.81;97769.14;1649542;85;21198;-66
2021/05/30 02:25:58;;;;;;;1.05;0.75;;;;;;;9.65;80.92;97772.08;1649673;86;21507;-66
2021/05/30 02:28:25;;;;;;;1.37;0.80;;;;;;;9.68;80.06;97775.67;1649564;86;21088;-66
2021/05/30 02:30:52;;;;;;;2.42;1.05;;;;;;;9.69;80.81;97779.41;1649985;85;21059;-68
2021/05/30 02:33:19;;;;;;;0.98;0.70;;;;;;;9.73;80.52;97782.05;1650046;87;21040;-67
2021/05/30 02:35:46;;;;;;;1.17;0.80;;;;;;;9.74;80.21;97782.40;1649854;87;21187;-66
2021/05/30 02:38:13;;;;;;;1.70;0.95;;;;;;;9.76;79.98;97782.27;1649921;87;21734;-66
2021/05/30 02:40:40;;;;;;;0.75;0.60;;;;;;;9.79;80.04;97778.91;1649651;87;21099;-66
2021/05/30 02:43:07;;;;;;;0.95;0.82;;;;;;;9.82;79.65;97782.51;1649872;87;21087;-67
2021/05/30 02:45:34;;;;;;;0.78;0.78;;;;;;;9.82;79.79;97790.29;1649761;87;21144;-68
2021/05/30 02:48:01;;;;;;;2.33;1.10;;;;;;;9.86;79.06;97788.23;1649593;87;21675;-69
2021/05/30 02:50:28;;;;;;;1.02;0.68;;;;;;;9.89;78.68;97781.45;1649717;87;21659;-67
2021/05/30 02:52:55;;;;;;;1.22;0.88;;;;;;;9.91;79.09;97788.15;1649769;87;21155;-67
2021/05/30 02:55:22;;;;;;;0.75;0.57;;;;;;;9.91;78.88;97784.26;1649750;85;21083;-67
2021/05/30 02:57:49;;;;;;;2.12;0.90;;;;;;;9.97;77.96;97780.26;1649612;87;21115;-67
2021/05/30 03:00:20;;;;;;;5.85;0.82;;;;;;;9.98;78.40;97781.42;1649837;87;21120;-67
2021/05/30 03:02:47;;;;;;;1.60;1.17;;;;;;;10.00;78.21;97792.46;1649827;87;21091;-67
2021/05/30 03:05:14;;;;;;;1.02;0.80;;;;;;;10.01;78.15;97785.02;1649851;86;21132;-67
2021/05/30 03:07:42;;;;;;;0.98;0.60;;;;;;;9.99;78.19;97780.95;1649820;87;21052;-66
2021/05/30 03:10:11;;;;;;;1.27;0.70;;;;;;;10.04;78.13;97783.13;1649747;85;21056;-66
2021/05/30 03:12:38;;;;;;;1.35;0.70;;;;;;;10.00;77.98;97788.57;1649653;86;21150;-67
2021/05/30 03:15:06;;;;;;;2.70;0.88;;;;;;;10.09;77.60;97791.27;1649810;87;21682;-67
2021/05/30 03:17:33;;;;;;;1.05;0.95;;;;;;;10.10;77.33;97787.25;1649683;87;21611;-67
2021/05/30 03:20:00;;;;;;;1.57;0.95;;;;;;;10.15;77.03;97792.04;1649725;87;21656;-67
2021/05/30 03:22:27;;;;;;;1.27;0.82;;;;;;;10.11;76.87;97786.77;1649814;86;21620;-67
2021/05/30 03:24:54;;;;;;;0.55;0.53;;;;;;;10.07;76.86;97795.32;1649895;85;21151;-67
2021/05/30 03:27:21;;;;;;;0.65;0.53;;;;;;;10.09;76.67;97797.28;1649847;86;21438;-67
2021/05/30 03:29:48;;;;;;;0.90;0.72;;;;;;;10.11;76.87;97801.86;1649751;85;21207;-67
2021/05/30 03:32:15;;;;;;;1.30;0.75;;;;;;;10.17;76.61;97800.48;1649575;87;21068;-67
2021/05/30 03:34:42;;;;;;;0.60;0.57;;;;;;;10.26;76.52;97807.41;1649792;87;21552;-68
2021/05/30 03:37:09;;;;;;;0.62;0.60;;;;;;;10.27;76.12;97805.95;1649795;87;21067;-68
2021/05/30 03:39:40;;;;;;;0.78;0.62;;;;;;;10.32;75.73;97799.86;1649796;86;21063;-69
2021/05/30 03:42:29;;;;;;;0.72;0.60;;;;;;;10.37;75.54;97792.94;1649730;87;21099;-69
2021/05/30 03:44:59;;;;;;;0.50;0.33;;;;;;;10.44;74.88;97800.47;1635017;88;21111;-70
2021/05/30 03:47:26;;;;;;;0.70;0.50;;;;;;;10.52;74.45;97796.67;1634887;88;21705;-68
2021/05/30 03:49:53;;;;;;;2.52;0.53;;;;;;;10.54;74.30;97801.25;1634929;88;21103;-69
2021/05/30 03:52:20;;;;;;;0.75;0.62;;;;;;;10.56;73.75;97807.10;1635031;88;21126;-69
2021/05/30 03:54:46;;;;;;;0.20;0.20;;;;;;;10.61;73.59;97801.47;1635157;88;21047;-69
2021/05/30 03:57:15;;;;;;;2.02;0.70;;;;;;;10.72;72.85;97802.55;1634929;88;21059;-69
2021/05/30 03:59:42;;;;;;;0.90;0.53;;;;;;;10.76;72.55;97804.72;1634799;86;21103;-69
2021/05/30 04:02:09;;;;;;;1.00;0.60;;;;;;;10.81;72.50;97805.58;1634961;88;21151;-69
2021/05/30 04:04:36;;;;;;;0.50;0.50;;;;;;;10.81;72.26;97803.80;1634797;88;21151;-69
2021/05/30 04:07:02;;;;;;;1.77;0.90;;;;;;;10.85;72.27;97810.81;1635021;88;21120;-69
2021/05/30 04:09:31;;;;;;;1.05;0.78;;;;;;;10.86;72.14;97809.34;1634903;88;21146;-70
2021/05/30 04:11:59;;;;;;;1.20;0.62;;;;;;;10.92;72.21;97810.55;1634987;88;21079;-69
2021/05/30 04:14:26;;;;;;;0.90;0.85;;;;;;;10.85;72.44;97808.22;1635013;86;21177;-69
2021/05/30 04:16:53;;;;;;;0.62;0.62;;;;;;;10.92;72.27;97810.08;1634992;88;21119;-69
2021/05/30 04:19:20;;;;;;;0.90;0.68;;;;;;;10.97;72.36;97797.13;1634919;88;21128;-69
2021/05/30 04:21:47;;;;;;;1.00;0.90;;;;;;;10.99;72.74;97802.97;1634871;88;21150;-69
2021/05/30 04:24:14;;;;;;;1.22;0.70;;;;;;;11.04;72.86;97805.95;1634984;88;21074;-69
2021/05/30 04:26:41;;;;;;;1.17;0.90;;;;;;;11.14;72.75;97806.19;1635125;86;21667;-69
2021/05/30 04:29:08;;;;;;;1.00;0.80;;;;;;;11.26;72.59;97802.39;1635085;86;21595;-70
2021/05/30 04:31:35;;;;;;;1.40;1.00;;;;;;;11.37;72.78;97813.03;1635309;86;21285;-70
2021/05/30 04:34:02;;;;;;;1.22;0.90;;;;;;;11.44;72.59;97816.65;1635089;86;21103;-70
2021/05/30 04:36:29;;;;;;;1.17;0.78;;;;;;;11.49;72.58;97818.32;1635008;88;21175;-70
2021/05/30 04:38:56;;;;;;;2.00;1.20;;;;;;;11.58;72.54;97817.91;1635062;88;21079;-69
2021/05/30 04:41:23;;;;;;;1.67;0.80;;;;;;;11.57;72.26;97815.78;1634819;86;21194;-69
2021/05/30 04:43:49;;;;;;;1.50;1.12;;;;;;;11.58;72.20;97806.20;1642888;86;21150;-69
2021/05/30 04:46:16;;;;;;;1.02;0.60;;;;;;;11.59;72.42;97807.36;1653310;85;21610;-70
2021/05/30 04:48:43;;;;;;;2.08;1.00;;;;;;;11.66;72.25;97812.27;1653168;85;21226;-69
2021/05/30 04:51:13;;;;;;;1.40;1.02;;;;;;;11.66;72.64;97807.08;1653299;87;21114;-71
2021/05/30 04:53:44;;;;;;;1.87;0.90;;;;;;;11.74;72.06;97807.64;1653846;86;21582;-70
2021/05/30 04:56:15;;;;;;;1.52;1.05;;;;;;;11.78;72.10;97815.47;1653759;85;21090;-69
2021/05/30 04:58:41;;;;;;;1.12;0.90;;;;;;;11.79;72.52;97809.27;1653330;87;21102;-72
2021/05/30 05:01:08;;;;;;;1.57;0.98;;;;;;;11.86;71.97;97807.23;1653243;85;21582;-68
2021/05/30 05:03:35;;;;;;;1.62;0.70;;;;;;;11.94;71.55;97809.54;1653114;87;21588;-68
2021/05/30 05:06:03;;;;;;;0.85;0.70;;;;;;;12.03;71.31;97808.59;1653039;86;21115;-68
2021/05/30 05:08:29;;;;;;;1.85;0.95;;;;;;;11.92;72.01;97810.16;1653035;85;21115;-64
2021/05/30 05:10:56;;;;;;;1.02;0.75;;;;;;;12.00;72.00;97806.30;1652849;85;21107;-66
2021/05/30 05:13:23;;;;;;;1.75;0.70;;;;;;;12.08;70.99;97810.25;1652956;87;21075;-65
2021/05/30 05:15:53;;;;;;;1.55;0.70;;;;;;;12.13;70.98;97807.52;1653012;85;21075;-67
2021/05/30 05:18:23;;;;;;;0.62;0.55;;;;;;;12.20;70.98;97814.22;1652866;87;21194;-66
2021/05/30 05:20:51;;;;;;;0.70;0.60;;;;;;;12.25;70.88;97811.97;1652784;86;21131;-67
2021/05/30 05:23:22;;;;;;;1.42;0.93;;;;;;;12.30;70.41;97819.63;1653027;87;21095;-65
2021/05/30 05:26:12;;;;;;;2.37;0.90;;;;;;;12.29;70.16;97820.58;1652957;86;21047;-65
2021/05/30 05:28:39;;;;;;;1.32;0.82;;;;;;;12.34;70.16;97810.52;1632823;86;21102;-66
2021/05/30 05:31:06;;;;;;;0.90;0.60;;;;;;;12.45;70.09;97819.83;1625081;88;21107;-66
2021/05/30 05:33:33;;;;;;;1.00;0.70;;;;;;;12.51;69.99;97820.52;1626592;88;21130;-67
2021/05/30 05:36:00;;;;;;;2.30;0.72;;;;;;;12.58;69.60;97820.69;1624538;88;21217;-67
2021/05/30 05:38:27;;;;;;;3.62;0.78;;;;;;;12.60;69.07;97821.36;1636717;88;21181;-67
2021/05/30 05:40:54;;;;;;;1.15;0.82;;;;;;;12.67;69.21;97821.87;1631521;88;21067;-69
2021/05/30 05:43:21;;;;;;;2.87;0.80;;;;;;;12.73;68.94;97826.91;1671365;86;21066;-68
2021/05/30 05:45:48;;;;;;;1.35;0.98;;;;;;;12.79;68.62;97822.39;1671486;86;21162;-68
2021/05/30 05:48:16;;;;;;;0.90;0.60;;;;;;;12.82;68.45;97827.27;1671334;84;21571;-69
2021/05/30 05:50:44;;;;;;;0.90;0.70;;;;;;;12.85;68.12;97824.34;1671606;84;21199;-70
2021/05/30 05:53:11;;;;;;;1.22;0.70;;;;;;;12.86;68.01;97833.80;1671579;86;21062;-67
2021/05/30 05:55:38;;;;;;;1.07;0.65;;;;;;;12.89;67.96;97826.13;1671351;86;21075;-64
2021/05/30 05:58:08;;;;;;;1.02;0.78;;;;;;;12.92;67.71;97829.75;1671554;85;21107;-66
2021/05/30 06:00:35;;;;;;;1.10;0.70;;;;;;;13.03;67.84;97825.04;1671516;86;21173;-65
2021/05/30 06:03:03;;;;;;;0.78;0.70;;;;;;;13.14;67.58;97827.36;1671324;86;21023;-65
2021/05/30 06:05:30;;;;;;;1.20;1.05;;;;;;;13.10;66.30;97834.36;1671485;86;21186;-65
2021/05/30 06:07:59;;;;;;;1.27;0.95;;;;;;;13.18;66.33;97818.72;1671421;84;21059;-66
2021/05/30 06:10:27;;;;;;;1.62;1.00;;;;;;;13.35;66.37;97824.73;1671343;86;21173;-67
2021/05/30 06:12:57;;;;;;;1.00;0.80;;;;;;;13.42;65.93;97831.77;1671313;86;21546;-67
2021/05/30 06:15:25;;;;;;;0.75;0.60;;;;;;;13.46;65.08;97824.44;1671658;84;21068;-67
2021/05/30 06:17:56;;;;;;;1.25;0.82;;;;;;;13.59;65.06;97819.52;1672076;84;21074;-67
2021/05/30 06:20:25;;;;;;;1.12;0.72;;;;;;;13.70;64.35;97818.68;1671323;86;21110;-65
2021/05/30 06:22:54;;;;;;;0.90;0.75;;;;;;;13.76;64.36;97825.86;1671648;86;21113;-65
2021/05/30 06:25:21;;;;;;;1.47;0.68;;;;;;;13.78;64.38;97819.97;1671295;86;21150;-65
2021/05/30 06:27:48;;;;;;;1.67;0.75;;;;;;;13.80;63.75;97827.65;1673809;85;21653;-66
2021/05/30 06:30:18;;;;;;;0.98;0.60;;;;;;;13.77;64.43;97823.55;1675842;84;21075;-68
2021/05/30 06:32:45;;;;;;;0.60;0.40;;;;;;;13.80;63.65;97825.04;1675985;84;21173;-67
2021/05/30 06:35:12;;;;;;;1.47;0.70;;;;;;;13.82;63.33;97821.76;1675923;85;21082;-65
2021/05/30 06:37:38;;;;;;;0.50;0.50;;;;;;;13.86;63.66;97826.16;1676169;85;21069;-66
2021/05/30 06:40:08;;;;;;;0.50;0.50;;;;;;;13.78;62.33;97834.33;1676289;85;21062;-67
2021/05/30 06:42:35;;;;;;;0.93;0.57;;;;;;;13.83;63.62;97819.97;1650312;85;21083;-68
2021/05/30 06:45:05;;;;;;;0.65;0.40;;;;;;;13.84;62.81;97832.05;1676367;84;21130;-64
2021/05/30 06:47:33;;;;;;;0.80;0.60;;;;;;;13.88;64.84;97821.59;1690862;84;21034;-64
2021/05/30 06:50:00;;;;;;;0.85;0.50;;;;;;;14.03;64.62;97823.84;1694814;83;21523;-67
2021/05/30 06:52:27;;;;;;;1.45;0.80;;;;;;;14.33;64.84;97815.24;1694799;84;21055;-68
2021/05/30 06:54:54;;;;;;;1.45;0.70;;;;;;;14.64;63.63;97810.88;1694601;84;21184;-65
2021/05/30 06:57:21;;;;;;;1.17;0.57;;;;;;;14.99;63.55;97819.98;1694731;84;21134;-65
2021/05/30 06:59:48;;;;;;;0.93;0.53;;;;;;;15.30;62.44;97808.63;1694749;83;21161;-65
2021/05/30 07:02:16;;;;;;;0.85;0.70;;;;;;;15.43;61.62;97808.86;1694672;83;21526;-65
2021/05/30 07:04:43;;;;;;;0.60;0.60;;;;;;;15.50;62.03;97811.11;1694694;83;21054;-68
2021/05/30 07:07:10;;;;;;;0.95;0.60;;;;;;;15.50;58.21;97818.97;1694724;83;21141;-69
2021/05/30 07:09:37;;;;;;;1.15;0.60;;;;;;;15.32;58.09;97812.72;1694790;83;21246;-70
2021/05/30 07:12:06;;;;;;;0.85;0.57;;;;;;;15.47;57.99;97810.95;1694632;84;21109;-68
2021/05/30 07:14:33;;;;;;;0.90;0.70;;;;;;;15.56;58.54;97812.52;1694783;83;21681;-67
2021/05/30 07:17:00;;;;;;;3.17;0.57;;;;;;;15.68;59.15;97814.21;1694571;83;21617;-68
2021/05/30 07:19:27;;;;;;;0.40;0.40;;;;;;;15.68;59.15;97812.41;1694697;83;21615;-65
2021/05/30 07:21:54;;;;;;;0.80;0.60;;;;;;;15.73;58.43;97814.50;1692625;84;21205;-68
2021/05/30 07:24:21;;;;;;;0.57;0.50;;;;;;;15.67;58.22;97807.38;1686959;84;21174;-69
2021/05/30 07:26:48;;;;;;;0.62;0.50;;;;;;;15.88;59.99;97804.03;1673101;84;21058;-70
2021/05/30 07:29:16;;;;;;;0.78;0.30;;;;;;;16.16;58.95;97803.73;1680858;84;21134;-71
2021/05/30 07:31:44;;;;;;;0.55;0.40;;;;;;;16.34;58.43;97802.06;1679127;84;21555;-69
2021/05/30 07:34:11;;;;;;;2.35;0.35;;;;;;;16.41;57.62;97798.52;1677288;84;21185;-74
2021/05/30 07:36:38;;;;;;;5.83;3.33;;;;;;;16.41;56.16;97805.57;1677166;84;21146;-65
2021/05/30 07:39:06;;;;;;;20.12;10.68;;;;;;;16.41;54.51;97806.87;1669670;84;21571;-66
2021/05/30 07:41:34;;;;;;;22.73;10.23;;;;;;;16.40;53.06;97813.11;1669462;84;21606;-65
2021/05/30 07:44:02;;;;;;;19.70;10.28;;;;;;;16.44;55.74;97812.56;1670381;85;21063;-67
2021/05/30 07:46:29;;;;;;;38.98;17.95;;;;;;;16.48;55.29;97812.52;1674931;84;21055;-64
2021/05/30 07:48:56;;;;;;;3.55;2.27;;;;;;;16.51;54.82;97813.95;1669392;86;21043;-64
2021/05/30 07:51:23;;;;;;;1.50;1.15;;;;;;;16.48;54.27;97824.80;1674449;81;21269;-63
2021/05/30 07:53:50;;;;;;;2.12;0.80;;;;;;;16.38;56.01;97826.38;1736359;83;21074;-66
2021/05/30 07:56:17;;;;;;;0.90;0.60;;;;;;;16.31;56.02;97822.88;1736433;83;21079;-67
2021/05/30 07:58:43;;;;;;;0.42;0.30;;;;;;;16.29;56.00;97827.98;1740242;82;21001;-73
2021/05/30 08:14:06;;;;;;;0.40;0.40;;;;;;;17.16;51.56;97826.98;1743908;81;23046;-77
2021/05/30 08:16:33;;;;;;;0.50;0.28;;;;;;;17.06;52.65;97829.12;1713246;82;21036;-77
2021/05/30 08:19:00;;;;;;;0.47;0.28;;;;;;;17.04;53.18;97839.00;1718362;82;21064;-78
2021/05/30 08:21:27;;;;;;;0.30;0.30;;;;;;;17.06;53.57;97829.12;1719569;83;21034;-76
2021/05/30 08:23:54;;;;;;;0.37;0.37;;;;;;;16.99;53.28;97838.24;1720724;83;21075;-76
2021/05/30 08:26:23;;;;;;;0.40;0.30;;;;;;;16.89;52.34;97831.65;1725945;82;21042;-77
2021/05/30 08:28:50;;;;;;;0.30;0.30;;;;;;;16.89;53.96;97829.84;1723770;82;21030;-77
2021/05/30 08:31:17;;;;;;;0.30;0.30;;;;;;;16.95;53.66;97837.48;1721112;83;21031;-77
2021/05/30 08:33:44;;;;;;;0.80;0.40;;;;;;;17.02;53.77;97837.05;1720947;82;21107;-77
2021/05/30 08:36:10;;;;;;;1.05;0.60;;;;;;;17.04;53.17;97835.06;1716163;82;21051;-77
2021/05/30 08:38:37;;;;;;;0.50;0.33;;;;;;;17.02;53.64;97847.55;1718230;82;21046;-77
2021/05/30 08:41:04;;;;;;;0.30;0.30;;;;;;;17.09;53.38;97849.73;1719373;83;21059;-77
2021/05/30 08:43:31;;;;;;;0.47;0.40;;;;;;;17.15;53.89;97846.38;1681322;83;21070;-76
2021/05/30 08:45:58;;;;;;;0.45;0.45;;;;;;;17.22;53.75;97850.37;1691318;83;21549;-76
2021/05/30 08:48:25;;;;;;;0.42;0.40;;;;;;;17.16;49.60;97852.44;1723418;83;21566;-76
2021/05/30 08:51:05;;;;;;;0.53;0.25;;;;;;;17.22;52.22;97850.37;1672076;83;21055;-78
2021/05/30 08:53:38;;;;;;;0.42;0.40;;;;;;;17.20;52.02;97854.48;1710345;83;21566;-77
2021/05/30 08:56:09;;;;;;;0.45;0.37;;;;;;;17.23;52.83;97854.63;1732247;82;21024;-77
2021/05/30 08:58:41;;;;;;;0.40;0.40;;;;;;;17.22;52.74;97855.12;1720216;83;21566;-77
2021/05/30 09:01:21;;;;;;;0.78;0.40;;;;;;;17.20;50.83;97854.48;1688725;83;21045;-72
2021/05/30 09:04:05;;;;;;;0.88;0.40;;;;;;;17.15;52.02;97853.44;1710400;83;21044;-74
2021/05/30 09:06:34;;;;;;;0.40;0.40;;;;;;;17.15;51.84;97862.62;1707483;83;21019;-75
2021/05/30 09:09:02;;;;;;;0.50;0.40;;;;;;;17.11;51.55;97863.48;1715952;83;21058;-72
2021/05/30 09:11:48;;;;;;;0.50;0.40;;;;;;;17.16;51.93;97863.72;1711017;83;21048;-74
2021/05/30 09:14:28;;;;;;;0.40;0.30;;;;;;;17.26;53.01;97860.81;1723826;83;21138;-74
2021/05/30 09:17:04;;;;;;;0.33;0.30;;;;;;;17.36;51.88;97865.23;1723703;83;21512;-76
2021/05/30 09:19:44;;;;;;;0.40;0.40;;;;;;;17.47;52.06;97860.78;1709246;81;21130;-74
2021/05/30 09:22:25;;;;;;;0.30;0.30;;;;;;;17.62;52.42;97857.64;1705381;83;21146;-73
2021/05/30 09:24:59;;;;;;;0.70;0.50;;;;;;;17.65;49.38;97865.14;1711019;83;21019;-72
2021/05/30 09:27:29;;;;;;;0.50;0.40;;;;;;;17.62;51.36;97866.02;1684189;84;21130;-78
2021/05/30 09:30:27;;;;;;;0.30;0.30;;;;;;;17.58;51.20;97873.47;1676441;84;21685;-78
2021/05/30 09:33:08;;;;;;;1.10;0.40;;;;;;;17.47;50.77;97864.23;1690130;84;21059;-79
2021/05/30 09:35:43;;;;;;;0.60;0.40;;;;;;;17.31;50.29;97865.81;1641892;86;21059;-74
2021/05/30 09:38:31;;;;;;;1.27;0.33;;;;;;;17.15;50.28;97863.43;1669217;86;21721;-79
2021/05/30 09:41:03;;;;;;;1.22;0.60;;;;;;;17.07;51.09;97870.11;1672260;85;21055;-78
2021/05/30 09:43:38;;;;;;;0.60;0.47;;;;;;;17.04;51.69;97877.83;1676996;84;21111;-80
2021/05/30 09:46:18;;;;;;;0.35;0.35;;;;;;;17.08;52.17;97866.46;1660078;84;21159;-80
2021/05/30 09:48:53;;;;;;;0.50;0.50;;;;;;;17.12;51.78;97872.18;1675650;84;21050;-77
2021/05/30 09:51:41;;;;;;;0.60;0.60;;;;;;;17.09;51.40;97868.09;1667958;86;21067;-72
2021/05/30 09:54:13;;;;;;;0.30;0.30;;;;;;;17.08;50.97;97868.59;1682589;84;21365;-75
2021/05/30 09:56:55;;;;;;;0.65;0.50;;;;;;;16.97;51.02;97865.14;1693711;84;21618;-78
2021/05/30 09:59:26;;;;;;;1.00;0.53;;;;;;;16.96;50.51;97870.06;1698412;84;21008;-80
2021/05/30 10:02:01;;;;;;;0.80;0.70;;;;;;;16.95;51.21;97868.95;1672715;84;21110;-79
2021/05/30 10:04:31;;;;;;;0.65;0.50;;;;;;;17.03;51.31;97874.91;1660612;86;21198;-78
2021/05/30 10:07:02;;;;;;;0.90;0.60;;;;;;;17.04;49.61;97877.05;1666368;85;21694;-74
2021/05/30 10:09:30;;;;;;;1.12;0.50;;;;;;;17.05;49.18;97874.70;1668718;86;21602;-73
2021/05/30 10:11:59;;;;;;;0.37;0.37;;;;;;;17.18;51.09;97868.30;1688016;84;21278;-74
2021/05/30 10:14:27;;;;;;;33.92;15.70;;;;;;;17.29;50.87;97873.55;1640987;86;21106;-68
2021/05/30 10:16:55;;;;;;;15.08;9.05;;;;;;;17.27;49.62;97877.69;1608873;87;21103;-70
2021/05/30 10:19:32;;;;;;;9.78;3.50;;;;;;;17.24;50.05;97868.86;1655965;86;21546;-67
2021/05/30 10:22:01;;;;;;;2.35;1.45;;;;;;;17.22;50.37;97873.48;1659058;85;21111;-73
2021/05/30 10:24:30;;;;;;;2.00;1.52;;;;;;;17.23;50.23;97881.69;1641565;86;21124;-67
2021/05/30 10:27:23;;;;;;;1.98;1.30;;;;;;;17.21;50.72;97877.11;1664944;84;21558;-67
2021/05/30 10:30:10;;;;;;;1.45;1.25;;;;;;;17.21;50.60;97887.60;1655575;86;21108;-66
2021/05/30 10:32:42;;;;;;;1.27;0.80;;;;;;;17.18;50.63;97885.36;1660294;86;21063;-70
2021/05/30 10:35:22;;;;;;;0.93;0.60;;;;;;;17.18;49.44;97880.61;1663812;86;21579;-69
2021/05/30 10:37:56;;;;;;;0.90;0.70;;;;;;;17.22;50.19;97889.73;1669565;86;21051;-70
2021/05/30 10:40:30;;;;;;;0.95;0.62;;;;;;;17.22;50.05;97881.36;1648170;86;21571;-65
2021/05/30 10:43:13;;;;;;;5.05;0.55;;;;;;;17.17;49.72;97875.85;1648840;86;21147;-71
2021/05/30 10:45:52;;;;;;;0.37;0.37;;;;;;;17.12;49.26;97883.98;1668330;86;21116;-66
2021/05/30 10:48:19;;;;;;;0.70;0.40;;;;;;;17.11;49.31;97889.73;1668798;86;21606;-65
2021/05/30 10:53:46;;;;;;;0.80;0.62;;;;;;;17.09;49.31;97886.46;1656768;86;21060;-69
2021/05/30 10:56:34;;;;;;;0.60;0.40;;;;;;;17.15;50.05;97890.98;1645108;86;21590;-71
2021/05/30 10:59:15;;;;;;;0.78;0.50;;;;;;;17.25;50.00;97892.80;1651877;86;21054;-69
2021/05/30 11:01:50;;;;;;;0.30;0.30;;;;;;;17.27;48.45;97890.81;1641077;86;21237;-72
2021/05/30 11:04:30;;;;;;;0.65;0.40;;;;;;;17.42;49.47;97890.25;1659289;86;21126;-66
2021/05/30 11:07:20;;;;;;;0.40;0.40;;;;;;;17.60;49.10;97891.14;1643054;85;21535;-72
2021/05/30 11:09:58;;;;;;;0.60;0.50;;;;;;;17.81;48.88;97885.88;1663752;85;21566;-65
2021/05/30 11:12:33;;;;;;;0.68;0.40;;;;;;;18.03;49.27;97886.64;1662902;86;21674;-65
2021/05/30 11:15:31;;;;;;;0.40;0.40;;;;;;;18.21;49.18;97884.86;1652417;86;21182;-68
2021/05/30 11:18:00;;;;;;;2.52;0.60;;;;;;;18.38;48.39;97879.09;1664212;86;21127;-67
2021/05/30 11:20:41;;;;;;;27.22;14.40;;;;;;;18.59;48.58;97877.41;1655122;86;21574;-68
2021/05/30 11:23:15;;;;;;;18.82;11.25;;;;;;;18.76;46.98;97876.05;1681391;84;21070;-66
2021/05/30 11:25:55;;;;;;;48.10;26.37;;;;;;;18.90;47.82;97867.22;1673487;84;21612;-68
2021/05/30 11:28:28;;;;;;;12.45;7.67;;;;;;;19.12;46.75;97866.06;1704436;84;21103;-67
2021/05/30 11:31:09;;;;;;;3.08;1.90;;;;;;;19.33;48.09;97863.28;1704203;84;21096;-64
2021/05/30 11:33:43;;;;;;;1.45;1.07;;;;;;;19.50;48.05;97869.48;1653463;86;21173;-71
2021/05/30 11:36:25;;;;;;;1.95;0.80;;;;;;;19.58;46.81;97874.06;1675749;85;21071;-63
2021/05/30 11:39:09;;;;;;;0.80;0.40;;;;;;;19.58;46.16;97864.03;1704613;83;21091;-65
2021/05/30 11:41:49;;;;;;;1.25;0.65;;;;;;;19.56;46.14;97863.44;1702155;84;21143;-64
2021/05/30 11:44:20;;;;;;;1.25;0.50;;;;;;;19.48;46.02;97856.55;1693006;84;21027;-64
2021/05/30 11:46:51;;;;;;;0.68;0.57;;;;;;;19.42;45.40;97851.56;1689583;84;21051;-65
2021/05/30 11:49:24;;;;;;;1.00;0.68;;;;;;;19.48;46.96;97855.22;1695541;84;21082;-65
2021/05/30 11:52:06;;;;;;;0.62;0.53;;;;;;;19.55;45.52;97849.95;1698300;84;21661;-65
2021/05/30 11:54:47;;;;;;;0.80;0.55;;;;;;;19.80;46.63;97840.44;1696283;84;21074;-65
2021/05/30 11:57:24;;;;;;;0.70;0.50;;;;;;;19.90;44.23;97840.32;1699703;84;21573;-63
2021/05/30 12:00:00;;;;;;;0.33;0.30;;;;;;;19.95;45.43;97842.86;1696067;84;21589;-64
2021/05/30 12:02:41;;;;;;;;;;;;;;;19.94;43.18;97835.95;1675476;84;21171;-63
2021/05/30 12:05:10;;;;;;;;;;;;;;;20.07;45.28;97838.58;1705378;84;20161;-65
2021/05/30 12:07:37;;;;;;;0.50;0.50;;;;;;;20.55;43.70;97833.29;1701711;84;20451;-64